sensor_id;sensor_type;location;lat;lon;timestamp;P1;P2;P0
67376;PMS7003;54261;46.086;6.588;2022-08-19T00:04:59;10.67;10.67;8.00
67376;PMS7003;54261;46.086;6.588;2022-08-19T00:10:02;12.33;11.00;8.00
67376;PMS7003;54261;46.086;6.588;2022-08-19T00:15:08;11.00;11.00;8.00
67376;PMS7003;54261;46.086;6.588;2022-08-19T00:20:15;13.33;13.33;8.00
67376;PMS7003;54261;46.086;6.588;2022-08-19T00:25:20;12.67;12.67;9.00
67376;PMS7003;54261;46.086;6.588;2022-08-19T00:30:31;12.00;11.33;8.67
67376;PMS7003;54261;46.086;6.588;2022-08-19T00:35:33;11.00;11.00;7.67
67376;PMS7003;54261;46.086;6.588;2022-08-19T00:40:35;11.67;10.67;9.00
67376;PMS7003;54261;46.086;6.588;2022-08-19T00:45:37;9.67;9.67;8.00
67376;PMS7003;54261;46.086;6.588;2022-08-19T00:50:43;10.00;10.00;7.33
67376;PMS7003;54261;46.086;6.588;2022-08-19T00:55:53;11.00;11.00;8.33
67376;PMS7003;54261;46.086;6.588;2022-08-19T01:00:58;8.67;8.67;7.00
67376;PMS7003;54261;46.086;6.588;2022-08-19T01:06:01;11.33;11.00;8.00
67376;PMS7003;54261;46.086;6.588;2022-08-19T01:11:04;11.67;11.33;8.67
67376;PMS7003;54261;46.086;6.588;2022-08-19T01:16:10;9.33;9.00;7.00
67376;PMS7003;54261;46.086;6.588;2022-08-19T01:21:21;12.67;12.67;10.00
67376;PMS7003;54261;46.086;6.588;2022-08-19T01:26:24;15.00;15.00;10.67
67376;PMS7003;54261;46.086;6.588;2022-08-19T01:31:28;12.67;12.00;10.00
67376;PMS7003;54261;46.086;6.588;2022-08-19T01:36:38;12.67;12.00;10.00
67376;PMS7003;54261;46.086;6.588;2022-08-19T01:41:43;12.00;12.00;9.67
67376;PMS7003;54261;46.086;6.588;2022-08-19T01:46:46;12.33;11.67;9.33
67376;PMS7003;54261;46.086;6.588;2022-08-19T01:51:49;13.67;13.67;10.67
67376;PMS7003;54261;46.086;6.588;2022-08-19T01:56:53;13.67;12.00;10.00
67376;PMS7003;54261;46.086;6.588;2022-08-19T02:01:59;15.00;15.00;11.00
67376;PMS7003;54261;46.086;6.588;2022-08-19T02:07:02;13.33;12.67;9.33
67376;PMS7003;54261;46.086;6.588;2022-08-19T02:12:05;13.33;12.33;9.67
67376;PMS7003;54261;46.086;6.588;2022-08-19T02:17:09;10.67;10.33;9.00
67376;PMS7003;54261;46.086;6.588;2022-08-19T02:22:11;12.67;12.67;10.00
67376;PMS7003;54261;46.086;6.588;2022-08-19T02:27:14;14.00;14.00;10.00
67376;PMS7003;54261;46.086;6.588;2022-08-19T02:32:17;13.00;11.67;9.67
67376;PMS7003;54261;46.086;6.588;2022-08-19T02:37:23;9.33;9.33;7.00
67376;PMS7003;54261;46.086;6.588;2022-08-19T02:42:44;9.00;9.00;7.00
67376;PMS7003;54261;46.086;6.588;2022-08-19T02:47:47;10.00;10.00;8.00
67376;PMS7003;54261;46.086;6.588;2022-08-19T02:52:49;8.00;8.00;7.00
67376;PMS7003;54261;46.086;6.588;2022-08-19T02:57:51;8.33;8.33;5.67
67376;PMS7003;54261;46.086;6.588;2022-08-19T03:02:54;8.00;8.00;7.00
67376;PMS7003;54261;46.086;6.588;2022-08-19T03:07:56;12.00;12.00;10.00
67376;PMS7003;54261;46.086;6.588;2022-08-19T03:12:58;13.33;12.33;9.33
67376;PMS7003;54261;46.086;6.588;2022-08-19T03:18:05;11.67;11.67;10.00
67376;PMS7003;54261;46.086;6.588;2022-08-19T03:23:09;10.67;10.67;9.00
67376;PMS7003;54261;46.086;6.588;2022-08-19T03:28:12;6.67;6.67;5.00
67376;PMS7003;54261;46.086;6.588;2022-08-19T03:33:16;11.00;11.00;9.00
67376;PMS7003;54261;46.086;6.588;2022-08-19T03:38:29;11.00;11.00;8.00
67376;PMS7003;54261;46.086;6.588;2022-08-19T03:43:32;9.33;9.00;7.00
67376;PMS7003;54261;46.086;6.588;2022-08-19T03:48:36;8.33;8.33;8.00
67376;PMS7003;54261;46.086;6.588;2022-08-19T03:53:40;11.00;10.00;9.00
67376;PMS7003;54261;46.086;6.588;2022-08-19T03:58:42;7.67;7.00;6.00
67376;PMS7003;54261;46.086;6.588;2022-08-19T04:03:47;7.67;7.00;4.33
67376;PMS7003;54261;46.086;6.588;2022-08-19T04:08:51;10.00;10.00;8.67
67376;PMS7003;54261;46.086;6.588;2022-08-19T04:13:55;12.00;9.33;7.00
67376;PMS7003;54261;46.086;6.588;2022-08-19T04:19:02;9.00;9.00;7.33
67376;PMS7003;54261;46.086;6.588;2022-08-19T04:24:06;8.33;8.33;6.33
67376;PMS7003;54261;46.086;6.588;2022-08-19T04:29:10;13.00;11.67;8.67
67376;PMS7003;54261;46.086;6.588;2022-08-19T04:34:16;8.67;8.67;7.00
67376;PMS7003;54261;46.086;6.588;2022-08-19T04:39:25;7.33;7.33;6.00
67376;PMS7003;54261;46.086;6.588;2022-08-19T04:44:50;6.33;6.00;6.00
67376;PMS7003;54261;46.086;6.588;2022-08-19T04:49:52;8.00;5.67;3.33
67376;PMS7003;54261;46.086;6.588;2022-08-19T04:54:54;7.00;7.00;5.00
67376;PMS7003;54261;46.086;6.588;2022-08-19T04:59:57;10.00;8.00;6.00
67376;PMS7003;54261;46.086;6.588;2022-08-19T05:04:59;9.33;8.00;7.00
67376;PMS7003;54261;46.086;6.588;2022-08-19T05:10:03;7.67;6.00;5.33
67376;PMS7003;54261;46.086;6.588;2022-08-19T05:15:07;4.00;4.00;3.00
67376;PMS7003;54261;46.086;6.588;2022-08-19T05:20:10;3.00;3.00;2.00
67376;PMS7003;54261;46.086;6.588;2022-08-19T05:25:30;4.00;4.00;3.67
67376;PMS7003;54261;46.086;6.588;2022-08-19T05:30:32;1.67;1.67;0.00
67376;PMS7003;54261;46.086;6.588;2022-08-19T05:35:48;4.00;4.00;2.67
67376;PMS7003;54261;46.086;6.588;2022-08-19T05:40:51;3.00;1.67;1.00
67376;PMS7003;54261;46.086;6.588;2022-08-19T05:45:53;2.00;2.00;1.00
67376;PMS7003;54261;46.086;6.588;2022-08-19T05:50:55;3.00;3.00;2.00
67376;PMS7003;54261;46.086;6.588;2022-08-19T05:56:03;2.00;2.00;1.00
67376;PMS7003;54261;46.086;6.588;2022-08-19T06:01:12;2.67;2.67;2.00
67376;PMS7003;54261;46.086;6.588;2022-08-19T06:06:18;0.00;0.00;0.00
67376;PMS7003;54261;46.086;6.588;2022-08-19T06:11:28;1.33;1.33;1.33
67376;PMS7003;54261;46.086;6.588;2022-08-19T06:16:38;2.00;2.00;1.00
67376;PMS7003;54261;46.086;6.588;2022-08-19T06:21:45;1.67;1.67;1.00
67376;PMS7003;54261;46.086;6.588;2022-08-19T06:26:49;1.33;1.33;1.00
67376;PMS7003;54261;46.086;6.588;2022-08-19T06:31:59;1.00;1.00;1.00
67376;PMS7003;54261;46.086;6.588;2022-08-19T06:37:02;2.00;2.00;1.33
67376;PMS7003;54261;46.086;6.588;2022-08-19T06:42:05;1.00;1.00;1.00
67376;PMS7003;54261;46.086;6.588;2022-08-19T06:47:13;3.00;2.00;2.00
67376;PMS7003;54261;46.086;6.588;2022-08-19T06:52:30;2.33;2.33;2.00
67376;PMS7003;54261;46.086;6.588;2022-08-19T06:57:34;3.00;3.00;2.33
67376;PMS7003;54261;46.086;6.588;2022-08-19T07:02:37;3.00;3.00;3.00
67376;PMS7003;54261;46.086;6.588;2022-08-19T07:07:41;2.00;2.00;2.00
67376;PMS7003;54261;46.086;6.588;2022-08-19T07:12:48;2.33;2.33;2.00
67376;PMS7003;54261;46.086;6.588;2022-08-19T07:17:52;1.00;1.00;1.00
67376;PMS7003;54261;46.086;6.588;2022-08-19T07:22:54;4.00;4.00;3.00
67376;PMS7003;54261;46.086;6.588;2022-08-19T07:27:56;4.00;4.00;3.33
67376;PMS7003;54261;46.086;6.588;2022-08-19T07:33:02;3.67;3.00;2.67
67376;PMS7003;54261;46.086;6.588;2022-08-19T07:38:06;3.00;3.00;2.00
67376;PMS7003;54261;46.086;6.588;2022-08-19T07:43:08;2.00;2.00;1.00
67376;PMS7003;54261;46.086;6.588;2022-08-19T07:48:14;5.33;5.00;4.00
67376;PMS7003;54261;46.086;6.588;2022-08-19T07:53:16;5.00;4.00;3.00
67376;PMS7003;54261;46.086;6.588;2022-08-19T07:58:20;4.00;4.00;4.00
67376;PMS7003;54261;46.086;6.588;2022-08-19T08:03:23;5.00;5.00;4.00
67376;PMS7003;54261;46.086;6.588;2022-08-19T08:08:47;5.33;4.00;3.00
67376;PMS7003;54261;46.086;6.588;2022-08-19T08:14:08;5.00;5.00;3.67
67376;PMS7003;54261;46.086;6.588;2022-08-19T08:19:30;3.00;3.00;3.00
67376;PMS7003;54261;46.086;6.588;2022-08-19T08:24:33;3.00;3.00;2.00
67376;PMS7003;54261;46.086;6.588;2022-08-19T08:29:37;4.00;4.00;3.00
67376;PMS7003;54261;46.086;6.588;2022-08-19T08:34:42;6.00;5.00;4.00
67376;PMS7003;54261;46.086;6.588;2022-08-19T08:39:47;5.67;5.67;5.00
67376;PMS7003;54261;46.086;6.588;2022-08-19T08:45:33;5.00;4.67;4.00
67376;PMS7003;54261;46.086;6.588;2022-08-19T08:50:19;5.00;5.00;4.00
67376;PMS7003;54261;46.086;6.588;2022-08-19T08:55:27;5.00;5.00;4.00
67376;PMS7003;54261;46.086;6.588;2022-08-19T09:00:39;38.00;20.33;7.00
67376;PMS7003;54261;46.086;6.588;2022-08-19T09:06:00;7.33;5.67;4.00
67376;PMS7003;54261;46.086;6.588;2022-08-19T09:11:38;8.00;8.00;6.33
67376;PMS7003;54261;46.086;6.588;2022-08-19T09:16:44;9.00;9.00;6.67
67376;PMS7003;54261;46.086;6.588;2022-08-19T09:21:47;15.67;10.67;7.33
67376;PMS7003;54261;46.086;6.588;2022-08-19T09:26:49;8.00;7.00;6.00
67376;PMS7003;54261;46.086;6.588;2022-08-19T09:31:53;11.33;11.33;6.33
67376;PMS7003;54261;46.086;6.588;2022-08-19T09:36:55;10.67;9.00;8.00
67376;PMS7003;54261;46.086;6.588;2022-08-19T09:41:59;10.00;10.00;7.00
67376;PMS7003;54261;46.086;6.588;2022-08-19T09:47:03;10.33;8.67;5.67
67376;PMS7003;54261;46.086;6.588;2022-08-19T09:52:07;10.33;10.00;8.00
67376;PMS7003;54261;46.086;6.588;2022-08-19T09:57:14;11.33;10.00;8.00
67376;PMS7003;54261;46.086;6.588;2022-08-19T10:02:18;7.33;7.33;6.00
67376;PMS7003;54261;46.086;6.588;2022-08-19T10:07:23;5.00;5.00;4.00
67376;PMS7003;54261;46.086;6.588;2022-08-19T10:12:37;9.00;9.00;7.00
67376;PMS7003;54261;46.086;6.588;2022-08-19T10:17:39;8.00;8.00;7.00
67376;PMS7003;54261;46.086;6.588;2022-08-19T10:22:48;8.67;8.67;6.33
67376;PMS7003;54261;46.086;6.588;2022-08-19T10:27:54;7.33;7.33;6.33
67376;PMS7003;54261;46.086;6.588;2022-08-19T10:32:56;9.00;8.00;7.00
67376;PMS7003;54261;46.086;6.588;2022-08-19T10:37:58;9.33;9.33;8.00
67376;PMS7003;54261;46.086;6.588;2022-08-19T10:43:04;10.33;9.33;7.67
67376;PMS7003;54261;46.086;6.588;2022-08-19T10:48:06;10.33;9.33;8.33
67376;PMS7003;54261;46.086;6.588;2022-08-19T10:53:16;8.00;8.00;7.00
67376;PMS7003;54261;46.086;6.588;2022-08-19T10:58:19;6.33;6.33;5.00
67376;PMS7003;54261;46.086;6.588;2022-08-19T11:03:27;9.00;8.00;7.00
67376;PMS7003;54261;46.086;6.588;2022-08-19T11:08:31;9.33;9.33;8.00
67376;PMS7003;54261;46.086;6.588;2022-08-19T11:13:36;11.00;11.00;8.00
67376;PMS7003;54261;46.086;6.588;2022-08-19T11:18:41;10.67;10.67;8.00
67376;PMS7003;54261;46.086;6.588;2022-08-19T11:23:46;10.67;10.67;8.67
67376;PMS7003;54261;46.086;6.588;2022-08-19T11:28:51;11.00;11.00;9.00
67376;PMS7003;54261;46.086;6.588;2022-08-19T11:33:56;9.33;9.33;8.00
67376;PMS7003;54261;46.086;6.588;2022-08-19T11:39:01;10.00;10.00;8.33
67376;PMS7003;54261;46.086;6.588;2022-08-19T11:44:05;15.00;12.33;9.67
67376;PMS7003;54261;46.086;6.588;2022-08-19T11:49:09;13.67;13.67;9.67
67376;PMS7003;54261;46.086;6.588;2022-08-19T11:54:15;14.67;11.00;9.00
67376;PMS7003;54261;46.086;6.588;2022-08-19T11:59:18;16.33;15.00;12.00
67376;PMS7003;54261;46.086;6.588;2022-08-19T12:04:21;14.33;14.33;11.00
67376;PMS7003;54261;46.086;6.588;2022-08-19T12:09:24;15.67;13.33;10.33
67376;PMS7003;54261;46.086;6.588;2022-08-19T12:14:31;13.00;13.00;9.00
67376;PMS7003;54261;46.086;6.588;2022-08-19T12:19:35;10.67;10.67;9.00
67376;PMS7003;54261;46.086;6.588;2022-08-19T12:24:39;13.33;13.00;9.33
67376;PMS7003;54261;46.086;6.588;2022-08-19T12:29:41;9.00;9.00;7.33
67376;PMS7003;54261;46.086;6.588;2022-08-19T12:34:43;11.33;11.33;8.33
67376;PMS7003;54261;46.086;6.588;2022-08-19T12:39:46;8.00;6.67;4.67
67376;PMS7003;54261;46.086;6.588;2022-08-19T12:44:48;10.00;10.00;7.33
67376;PMS7003;54261;46.086;6.588;2022-08-19T12:49:53;14.67;12.00;10.00
67376;PMS7003;54261;46.086;6.588;2022-08-19T12:54:56;9.67;9.67;7.67
67376;PMS7003;54261;46.086;6.588;2022-08-19T13:00:04;12.33;12.33;9.33
67376;PMS7003;54261;46.086;6.588;2022-08-19T13:05:14;12.67;12.67;9.67
67376;PMS7003;54261;46.086;6.588;2022-08-19T13:10:19;10.00;10.00;9.00
67376;PMS7003;54261;46.086;6.588;2022-08-19T13:15:23;12.00;10.67;8.00
67376;PMS7003;54261;46.086;6.588;2022-08-19T13:20:25;12.67;11.67;7.67
67376;PMS7003;54261;46.086;6.588;2022-08-19T13:25:28;12.33;12.33;10.00
67376;PMS7003;54261;46.086;6.588;2022-08-19T13:30:30;10.00;10.00;8.33
67376;PMS7003;54261;46.086;6.588;2022-08-19T13:35:56;12.00;12.00;8.67
67376;PMS7003;54261;46.086;6.588;2022-08-19T13:41:03;11.00;11.00;8.33
67376;PMS7003;54261;46.086;6.588;2022-08-19T13:46:12;10.67;10.33;8.00
67376;PMS7003;54261;46.086;6.588;2022-08-19T13:51:16;11.67;11.33;9.67
67376;PMS7003;54261;46.086;6.588;2022-08-19T13:56:19;12.00;12.00;10.00
67376;PMS7003;54261;46.086;6.588;2022-08-19T14:01:26;7.67;7.67;5.33
67376;PMS7003;54261;46.086;6.588;2022-08-19T14:06:29;11.67;11.33;8.00
67376;PMS7003;54261;46.086;6.588;2022-08-19T14:11:31;11.33;11.33;8.00
67376;PMS7003;54261;46.086;6.588;2022-08-19T14:16:33;12.00;11.67;9.00
67376;PMS7003;54261;46.086;6.588;2022-08-19T14:21:35;13.67;12.33;9.00
67376;PMS7003;54261;46.086;6.588;2022-08-19T14:26:42;9.00;8.00;7.00
67376;PMS7003;54261;46.086;6.588;2022-08-19T14:31:44;10.00;10.00;8.00
67376;PMS7003;54261;46.086;6.588;2022-08-19T14:36:46;11.00;11.00;7.33
67376;PMS7003;54261;46.086;6.588;2022-08-19T14:41:50;10.33;10.33;9.00
67376;PMS7003;54261;46.086;6.588;2022-08-19T14:46:53;9.00;9.00;7.33
67376;PMS7003;54261;46.086;6.588;2022-08-19T14:51:55;15.67;15.00;12.33
67376;PMS7003;54261;46.086;6.588;2022-08-19T14:56:58;13.33;13.33;9.00
67376;PMS7003;54261;46.086;6.588;2022-08-19T15:02:00;9.00;9.00;7.00
67376;PMS7003;54261;46.086;6.588;2022-08-19T15:07:22;11.33;10.00;8.00
67376;PMS7003;54261;46.086;6.588;2022-08-19T15:12:29;12.33;12.33;9.67
67376;PMS7003;54261;46.086;6.588;2022-08-19T15:17:32;9.33;9.33;7.67
67376;PMS7003;54261;46.086;6.588;2022-08-19T15:22:46;12.00;12.00;8.00
67376;PMS7003;54261;46.086;6.588;2022-08-19T15:27:49;10.67;10.00;7.67
67376;PMS7003;54261;46.086;6.588;2022-08-19T15:32:52;9.00;9.00;7.00
67376;PMS7003;54261;46.086;6.588;2022-08-19T15:37:55;12.00;12.00;8.33
67376;PMS7003;54261;46.086;6.588;2022-08-19T15:42:57;12.00;10.33;8.00
67376;PMS7003;54261;46.086;6.588;2022-08-19T15:48:01;5.00;5.00;5.00
67376;PMS7003;54261;46.086;6.588;2022-08-19T15:53:06;7.00;7.00;6.00
67376;PMS7003;54261;46.086;6.588;2022-08-19T15:58:11;10.00;10.00;7.33
67376;PMS7003;54261;46.086;6.588;2022-08-19T16:03:33;9.00;9.00;7.00
67376;PMS7003;54261;46.086;6.588;2022-08-19T16:08:55;7.67;6.67;6.00
67376;PMS7003;54261;46.086;6.588;2022-08-19T16:14:05;9.00;9.00;7.00
67376;PMS7003;54261;46.086;6.588;2022-08-19T16:19:10;8.33;8.33;7.00
67376;PMS7003;54261;46.086;6.588;2022-08-19T16:24:14;11.00;11.00;7.00
67376;PMS7003;54261;46.086;6.588;2022-08-19T16:29:18;9.00;9.00;7.00
67376;PMS7003;54261;46.086;6.588;2022-08-19T16:34:36;11.33;11.33;7.00
67376;PMS7003;54261;46.086;6.588;2022-08-19T16:39:39;7.33;7.33;6.33
67376;PMS7003;54261;46.086;6.588;2022-08-19T16:44:44;10.00;9.00;7.00
67376;PMS7003;54261;46.086;6.588;2022-08-19T16:49:47;13.33;13.33;10.33
67376;PMS7003;54261;46.086;6.588;2022-08-19T16:54:55;12.00;12.00;10.00
67376;PMS7003;54261;46.086;6.588;2022-08-19T16:59:58;10.00;10.00;5.33
67376;PMS7003;54261;46.086;6.588;2022-08-19T17:05:00;13.67;13.67;10.00
67376;PMS7003;54261;46.086;6.588;2022-08-19T17:10:03;14.67;13.67;10.67
67376;PMS7003;54261;46.086;6.588;2022-08-19T17:15:06;11.67;11.67;9.00
67376;PMS7003;54261;46.086;6.588;2022-08-19T17:20:11;13.33;11.67;10.00
67376;PMS7003;54261;46.086;6.588;2022-08-19T17:25:13;16.00;13.67;11.00
67376;PMS7003;54261;46.086;6.588;2022-08-19T17:30:21;13.67;13.67;10.67
67376;PMS7003;54261;46.086;6.588;2022-08-19T17:35:23;14.00;14.00;10.00
67376;PMS7003;54261;46.086;6.588;2022-08-19T17:40:25;13.00;13.00;9.00
67376;PMS7003;54261;46.086;6.588;2022-08-19T17:45:30;14.67;14.67;10.33
67376;PMS7003;54261;46.086;6.588;2022-08-19T17:50:33;13.33;13.33;10.33
67376;PMS7003;54261;46.086;6.588;2022-08-19T17:55:36;19.00;18.00;13.67
67376;PMS7003;54261;46.086;6.588;2022-08-19T18:00:38;16.67;16.67;12.67
67376;PMS7003;54261;46.086;6.588;2022-08-19T18:05:55;18.33;17.67;14.33
67376;PMS7003;54261;46.086;6.588;2022-08-19T18:10:59;18.67;16.33;10.67
67376;PMS7003;54261;46.086;6.588;2022-08-19T18:16:02;14.67;13.67;11.33
67376;PMS7003;54261;46.086;6.588;2022-08-19T18:21:13;16.33;16.33;13.33
67376;PMS7003;54261;46.086;6.588;2022-08-19T18:26:17;17.00;17.00;14.00
67376;PMS7003;54261;46.086;6.588;2022-08-19T18:31:19;15.00;15.00;11.67
67376;PMS7003;54261;46.086;6.588;2022-08-19T18:36:24;14.00;13.33;11.00
67376;PMS7003;54261;46.086;6.588;2022-08-19T18:41:46;14.33;13.33;11.33
67376;PMS7003;54261;46.086;6.588;2022-08-19T18:47:06;13.67;13.67;10.33
67376;PMS7003;54261;46.086;6.588;2022-08-19T18:52:28;14.00;14.00;8.50
67376;PMS7003;54261;46.086;6.588;2022-08-19T18:57:31;13.33;13.33;10.67
67376;PMS7003;54261;46.086;6.588;2022-08-19T19:02:35;11.00;10.33;8.00
67376;PMS7003;54261;46.086;6.588;2022-08-19T19:07:41;13.33;13.00;10.00
67376;PMS7003;54261;46.086;6.588;2022-08-19T19:12:44;11.00;11.00;10.00
67376;PMS7003;54261;46.086;6.588;2022-08-19T19:17:47;11.33;11.33;9.67
67376;PMS7003;54261;46.086;6.588;2022-08-19T19:22:49;11.67;11.00;9.33
67376;PMS7003;54261;46.086;6.588;2022-08-19T19:27:56;12.00;12.00;10.00
67376;PMS7003;54261;46.086;6.588;2022-08-19T19:33:01;12.00;12.00;10.00
67376;PMS7003;54261;46.086;6.588;2022-08-19T19:38:03;11.67;11.00;10.33
67376;PMS7003;54261;46.086;6.588;2022-08-19T19:43:06;9.33;9.33;8.00
67376;PMS7003;54261;46.086;6.588;2022-08-19T19:48:08;12.33;12.00;10.00
67376;PMS7003;54261;46.086;6.588;2022-08-19T19:53:13;13.00;13.00;10.67
67376;PMS7003;54261;46.086;6.588;2022-08-19T19:58:15;11.00;10.67;9.00
67376;PMS7003;54261;46.086;6.588;2022-08-19T20:03:23;12.33;11.00;8.67
67376;PMS7003;54261;46.086;6.588;2022-08-19T20:08:27;13.00;13.00;10.33
67376;PMS7003;54261;46.086;6.588;2022-08-19T20:13:48;11.00;11.00;8.00
67376;PMS7003;54261;46.086;6.588;2022-08-19T20:18:50;10.33;10.33;7.67
67376;PMS7003;54261;46.086;6.588;2022-08-19T20:23:56;9.00;9.00;8.00
67376;PMS7003;54261;46.086;6.588;2022-08-19T20:29:10;11.67;11.67;10.00
67376;PMS7003;54261;46.086;6.588;2022-08-19T20:34:32;9.00;9.00;8.00
67376;PMS7003;54261;46.086;6.588;2022-08-19T20:39:35;8.33;7.67;6.67
67376;PMS7003;54261;46.086;6.588;2022-08-19T20:44:40;10.00;10.00;8.67
67376;PMS7003;54261;46.086;6.588;2022-08-19T20:49:42;11.00;10.67;8.33
67376;PMS7003;54261;46.086;6.588;2022-08-19T20:54:44;11.33;11.33;8.67
67376;PMS7003;54261;46.086;6.588;2022-08-19T20:59:47;10.33;10.33;8.33
67376;PMS7003;54261;46.086;6.588;2022-08-19T21:04:49;10.33;10.33;8.00
67376;PMS7003;54261;46.086;6.588;2022-08-19T21:09:52;12.00;11.00;9.00
67376;PMS7003;54261;46.086;6.588;2022-08-19T21:14:54;11.33;11.33;9.00
67376;PMS7003;54261;46.086;6.588;2022-08-19T21:19:56;11.67;10.67;8.67
67376;PMS7003;54261;46.086;6.588;2022-08-19T21:24:58;10.00;9.00;7.00
67376;PMS7003;54261;46.086;6.588;2022-08-19T21:30:01;8.33;8.33;7.00
67376;PMS7003;54261;46.086;6.588;2022-08-19T21:35:04;12.00;10.00;8.67
67376;PMS7003;54261;46.086;6.588;2022-08-19T21:40:06;9.67;9.67;7.33
67376;PMS7003;54261;46.086;6.588;2022-08-19T21:45:09;8.67;8.67;7.00
67376;PMS7003;54261;46.086;6.588;2022-08-19T21:50:13;8.33;8.33;7.00
67376;PMS7003;54261;46.086;6.588;2022-08-19T21:55:15;10.00;10.00;8.00
67376;PMS7003;54261;46.086;6.588;2022-08-19T22:00:19;12.33;11.00;8.00
67376;PMS7003;54261;46.086;6.588;2022-08-19T22:05:23;8.33;8.33;6.67
67376;PMS7003;54261;46.086;6.588;2022-08-19T22:10:28;12.00;11.00;9.00
67376;PMS7003;54261;46.086;6.588;2022-08-19T22:15:33;11.00;10.67;9.00
67376;PMS7003;54261;46.086;6.588;2022-08-19T22:20:35;8.00;8.00;7.00
67376;PMS7003;54261;46.086;6.588;2022-08-19T22:25:39;9.00;9.00;7.00
67376;PMS7003;54261;46.086;6.588;2022-08-19T22:30:44;10.67;9.67;7.67
67376;PMS7003;54261;46.086;6.588;2022-08-19T22:35:51;10.00;10.00;8.00
67376;PMS7003;54261;46.086;6.588;2022-08-19T22:40:54;8.50;7.50;6.50
67376;PMS7003;54261;46.086;6.588;2022-08-19T22:45:57;8.33;8.33;8.00
67376;PMS7003;54261;46.086;6.588;2022-08-19T22:51:00;9.33;9.00;8.00
67376;PMS7003;54261;46.086;6.588;2022-08-19T22:56:21;12.67;12.33;8.67
67376;PMS7003;54261;46.086;6.588;2022-08-19T23:01:24;11.33;11.00;9.33
67376;PMS7003;54261;46.086;6.588;2022-08-19T23:06:31;11.67;11.67;9.00
67376;PMS7003;54261;46.086;6.588;2022-08-19T23:11:38;10.33;10.00;7.67
67376;PMS7003;54261;46.086;6.588;2022-08-19T23:16:43;11.67;11.67;7.00
67376;PMS7003;54261;46.086;6.588;2022-08-19T23:21:51;11.67;11.33;9.00
67376;PMS7003;54261;46.086;6.588;2022-08-19T23:26:54;8.67;8.67;7.33
67376;PMS7003;54261;46.086;6.588;2022-08-19T23:32:15;11.67;10.67;8.33
67376;PMS7003;54261;46.086;6.588;2022-08-19T23:37:19;12.00;12.00;10.00
67376;PMS7003;54261;46.086;6.588;2022-08-19T23:42:22;11.67;11.67;9.00
67376;PMS7003;54261;46.086;6.588;2022-08-19T23:47:26;12.00;11.00;8.00
67376;PMS7003;54261;46.086;6.588;2022-08-19T23:52:31;12.67;12.67;10.00
67376;PMS7003;54261;46.086;6.588;2022-08-19T23:57:35;11.67;11.67;10.00
